Time;durP1;ratioP1;P1;durP2;ratioP2;P2;SDS_P1;SDS_P2;PMS_P1;PMS_P2;Temp;Humidity;BMP_temperature;BMP_pressure;BME280_temperature;BME280_humidity;BME280_pressure;Samples;Min_cycle;Max_cycle;Signal;HPM_P1;HPM_P2
2021/01/10 00:00:49;;;;;;;16.83;13.20;;;;;;;-1.92;84.44;101663.72;5066140;28;20292;-64
2021/01/10 00:03:15;;;;;;;23.37;13.70;;;;;;;-1.91;84.76;101670.69;5068645;28;20717;-64
2021/01/10 00:05:42;;;;;;;19.70;13.27;;;;;;;-1.90;84.77;101665.50;5067607;28;20599;-64
2021/01/10 00:08:09;;;;;;;17.47;12.60;;;;;;;-1.89;84.83;101671.59;5069466;28;20227;-63
2021/01/10 00:10:35;;;;;;;18.33;12.93;;;;;;;-1.89;84.91;101664.63;5070714;28;20576;-63
2021/01/10 00:13:02;;;;;;;19.47;13.67;;;;;;;-1.88;84.78;101665.50;5069807;28;20661;-64
2021/01/10 00:15:29;;;;;;;20.57;12.40;;;;;;;-1.88;84.66;101662.88;5069610;28;20673;-64
2021/01/10 00:17:55;;;;;;;20.67;13.83;;;;;;;-1.86;85.40;101669.88;5068319;28;20200;-64
2021/01/10 00:20:21;;;;;;;19.47;12.97;;;;;;;-1.86;85.23;101663.75;5067389;28;20205;-64
2021/01/10 00:22:51;;;;;;;21.40;14.17;;;;;;;-1.84;85.03;101662.91;5069490;28;20236;-64
2021/01/10 00:25:18;;;;;;;20.63;12.67;;;;;;;-1.84;85.29;101657.69;5064691;28;20197;-63
2021/01/10 00:27:44;;;;;;;24.30;14.80;;;;;;;-1.84;84.96;101657.69;5059674;28;20274;-64
2021/01/10 00:30:11;;;;;;;23.90;14.73;;;;;;;-1.83;85.13;101655.94;5065523;28;20283;-64
2021/01/10 00:32:37;;;;;;;21.40;13.90;;;;;;;-1.82;85.15;101660.31;5068491;28;20221;-64
2021/01/10 00:35:05;;;;;;;27.27;16.50;;;;;;;-1.81;85.10;101662.94;5063300;28;20212;-64
2021/01/10 00:37:31;;;;;;;47.90;23.03;;;;;;;-1.80;85.16;101666.41;5055969;28;20201;-64
2021/01/10 00:39:58;;;;;;;57.70;27.13;;;;;;;-1.79;85.67;101668.13;5053791;28;20240;-64
2021/01/10 00:42:24;;;;;;;65.33;32.93;;;;;;;-1.77;85.75;101663.78;5055772;28;20211;-64
2021/01/10 00:44:50;;;;;;;75.53;34.57;;;;;;;-1.77;85.07;101662.03;5058763;28;20581;-64
2021/01/10 00:47:17;;;;;;;69.07;30.83;;;;;;;-1.75;85.43;101662.03;5058124;28;20314;-64
2021/01/10 00:49:44;;;;;;;45.13;22.80;;;;;;;-1.74;85.33;101663.78;5057150;28;20202;-64
2021/01/10 00:52:10;;;;;;;49.10;24.07;;;;;;;-1.72;85.70;101662.06;5058887;28;20212;-64
2021/01/10 00:54:36;;;;;;;46.10;23.30;;;;;;;-1.71;85.88;101666.41;5055102;28;20228;-62
2021/01/10 00:57:03;;;;;;;46.27;23.00;;;;;;;-1.71;85.56;101663.81;5053189;28;20204;-64
2021/01/10 00:59:29;;;;;;;33.20;19.40;;;;;;;-1.71;85.34;101660.31;5060818;28;20693;-64
2021/01/10 01:01:55;;;;;;;34.00;18.63;;;;;;;-1.71;85.37;101657.72;5061155;28;20213;-63
2021/01/10 01:04:22;;;;;;;31.97;17.60;;;;;;;-1.71;85.92;101663.81;5060375;28;20217;-63
2021/01/10 01:06:48;;;;;;;27.10;16.97;;;;;;;-1.69;85.89;101667.31;5061340;28;20235;-63
2021/01/10 01:09:14;;;;;;;32.03;17.33;;;;;;;-1.67;85.96;101670.78;5058810;28;20213;-63
2021/01/10 01:11:41;;;;;;;30.90;18.00;;;;;;;-1.65;85.74;101669.06;5056394;28;20206;-64
2021/01/10 01:14:10;;;;;;;33.17;18.33;;;;;;;-1.63;85.83;101666.47;5057493;28;20616;-64
2021/01/10 01:16:36;;;;;;;24.57;15.27;;;;;;;-1.62;86.16;101668.19;5060627;28;20200;-63
2021/01/10 01:19:03;;;;;;;23.53;15.27;;;;;;;-1.61;85.84;101668.19;5057974;28;20209;-64
2021/01/10 01:21:29;;;;;;;22.33;14.77;;;;;;;-1.59;85.94;101668.19;5058565;28;20266;-64
2021/01/10 01:23:55;;;;;;;25.33;16.20;;;;;;;-1.58;85.83;101664.72;5060169;28;20225;-64
2021/01/10 01:26:24;;;;;;;35.13;20.20;;;;;;;-1.55;86.23;101675.16;5059684;28;20213;-64
2021/01/10 01:28:50;;;;;;;29.70;17.27;;;;;;;-1.54;86.52;101683.00;5062778;28;20200;-64
2021/01/10 01:31:18;;;;;;;31.67;16.77;;;;;;;-1.52;86.19;101678.66;5060134;28;20206;-64
2021/01/10 01:33:45;;;;;;;25.50;16.10;;;;;;;-1.51;86.19;101688.25;5054996;28;20225;-63
2021/01/10 01:36:12;;;;;;;25.60;16.13;;;;;;;-1.48;86.61;101688.25;5063661;28;20204;-64
2021/01/10 01:38:38;;;;;;;25.67;16.43;;;;;;;-1.47;86.14;101686.53;5058402;28;20214;-64
2021/01/10 01:41:06;;;;;;;25.67;16.57;;;;;;;-1.46;86.12;101683.91;5064685;28;20205;-64
2021/01/10 01:43:32;;;;;;;24.47;15.37;;;;;;;-1.43;86.49;101681.28;5065036;28;20323;-64
2021/01/10 01:45:58;;;;;;;23.67;15.03;;;;;;;-1.42;86.25;101683.03;5063892;28;20213;-64
2021/01/10 01:48:25;;;;;;;25.70;14.57;;;;;;;-1.42;86.38;101690.88;5057505;28;20244;-64
2021/01/10 01:50:51;;;;;;;24.20;15.13;;;;;;;-1.39;86.59;101687.41;5066606;28;20274;-64
2021/01/10 01:53:17;;;;;;;25.33;15.07;;;;;;;-1.37;86.15;101690.00;5057289;28;20300;-64
2021/01/10 01:55:46;;;;;;;23.00;15.13;;;;;;;-1.36;86.63;101684.78;5062307;28;20681;-64
2021/01/10 01:58:12;;;;;;;25.57;15.20;;;;;;;-1.33;86.56;101694.38;5060851;28;20200;-64
2021/01/10 02:00:38;;;;;;;26.57;15.97;;;;;;;-1.33;86.74;101687.41;5063524;28;20216;-64
2021/01/10 02:03:04;;;;;;;26.93;14.93;;;;;;;-1.31;86.97;101685.69;5063897;28;20228;-64
2021/01/10 02:05:34;;;;;;;24.47;14.27;;;;;;;-1.28;86.64;101697.88;5065088;28;20204;-64
2021/01/10 02:08:05;;;;;;;27.00;15.90;;;;;;;-1.27;86.76;101687.44;5064937;28;20224;-63
2021/01/10 02:10:36;;;;;;;26.10;15.60;;;;;;;-1.24;86.20;101687.41;5064105;28;20254;-64
2021/01/10 02:13:06;;;;;;;29.00;15.37;;;;;;;-1.21;86.91;101687.44;5063703;28;20234;-64
2021/01/10 02:15:34;;;;;;;26.20;15.53;;;;;;;-1.18;86.92;101682.22;5062833;28;20547;-64
2021/01/10 02:18:02;;;;;;;28.63;15.23;;;;;;;-1.15;86.77;101691.81;5058558;28;20203;-64
2021/01/10 02:20:30;;;;;;;23.43;14.30;;;;;;;-1.15;86.40;101697.03;5063075;28;20204;-63
2021/01/10 02:23:03;;;;;;;25.43;14.30;;;;;;;-1.13;86.53;101698.78;5062169;28;20697;-64
2021/01/10 02:25:32;;;;;;;25.10;15.10;;;;;;;-1.11;87.24;101698.78;5070658;28;20700;-64
2021/01/10 02:28:00;;;;;;;25.70;15.37;;;;;;;-1.11;86.48;101701.41;5063669;28;20243;-64
2021/01/10 02:30:28;;;;;;;30.87;15.77;;;;;;;-1.08;86.89;101696.19;5063713;28;20216;-64
2021/01/10 02:33:01;;;;;;;26.87;14.63;;;;;;;-1.07;86.98;101701.38;5067059;28;20259;-64
2021/01/10 02:35:29;;;;;;;29.57;16.50;;;;;;;-1.06;87.21;101697.91;5072286;28;20205;-64
2021/01/10 02:38:08;;;;;;;32.87;16.73;;;;;;;-1.04;87.15;101692.66;5072392;28;20662;-64
2021/01/10 02:40:38;;;;;;;31.73;16.23;;;;;;;-1.02;87.22;101692.66;5061960;28;20755;-63
2021/01/10 02:43:09;;;;;;;27.13;14.70;;;;;;;-1.00;87.06;101690.94;5092352;22;20233;-63
2021/01/10 02:45:40;;;;;;;28.73;16.00;;;;;;;-0.98;87.04;101689.19;5032412;28;20222;-66
2021/01/10 02:48:07;;;;;;;28.60;15.50;;;;;;;-0.99;86.91;101677.88;5032159;28;20787;-65
2021/01/10 02:50:34;;;;;;;36.47;15.97;;;;;;;-0.97;86.98;101680.47;5033120;28;20206;-65
2021/01/10 02:53:00;;;;;;;29.07;15.97;;;;;;;-0.98;87.07;101671.78;5030537;28;20241;-64
2021/01/10 02:55:26;;;;;;;25.40;14.80;;;;;;;-0.96;87.21;101667.41;5028168;28;20203;-64
2021/01/10 02:57:58;;;;;;;28.37;16.70;;;;;;;-0.94;87.05;101659.56;5033661;28;20220;-64
2021/01/10 03:00:27;;;;;;;25.70;15.07;;;;;;;-0.93;87.05;101656.09;5023431;28;20668;-64
2021/01/10 03:02:54;;;;;;;28.43;15.77;;;;;;;-0.92;87.18;101663.94;5030906;28;20241;-65
2021/01/10 03:05:21;;;;;;;27.80;15.37;;;;;;;-0.90;87.16;101656.09;5020999;28;20341;-65
2021/01/10 03:07:47;;;;;;;24.57;14.77;;;;;;;-0.89;87.38;101658.69;5024895;28;20227;-65
2021/01/10 03:10:14;;;;;;;29.37;14.93;;;;;;;-0.88;87.07;101656.94;5028916;28;20742;-64
2021/01/10 03:12:40;;;;;;;28.07;15.37;;;;;;;-0.87;87.17;101662.16;5023927;28;21691;-63
2021/01/10 03:15:09;;;;;;;29.57;16.43;;;;;;;-0.86;87.16;101656.06;5021710;28;20222;-63
2021/01/10 03:17:37;;;;;;;29.03;15.57;;;;;;;-0.84;87.04;101662.16;5030257;28;20336;-64
2021/01/10 03:20:05;;;;;;;28.00;15.50;;;;;;;-0.83;87.20;101660.44;5020561;28;20206;-63
2021/01/10 03:22:31;;;;;;;26.93;15.20;;;;;;;-0.82;87.32;101668.28;5025324;28;20221;-64
2021/01/10 03:24:57;;;;;;;28.83;15.77;;;;;;;-0.81;87.23;101664.78;5030526;28;20776;-63
2021/01/10 03:27:24;;;;;;;30.13;15.93;;;;;;;-0.79;87.20;101668.28;5030885;28;20230;-65
2021/01/10 03:29:50;;;;;;;23.93;14.97;;;;;;;-0.79;87.12;101667.41;5022117;28;20646;-62
2021/01/10 03:32:17;;;;;;;31.73;15.63;;;;;;;-0.76;87.26;101659.56;5023618;28;20206;-64
2021/01/10 03:34:43;;;;;;;27.67;15.60;;;;;;;-0.76;87.21;101663.03;5023898;28;20234;-64
2021/01/10 03:37:09;;;;;;;28.10;15.87;;;;;;;-0.73;87.37;101663.06;5024371;28;20234;-64
2021/01/10 03:39:35;;;;;;;26.97;15.37;;;;;;;-0.71;87.17;101663.03;5026572;28;20202;-63
2021/01/10 03:42:02;;;;;;;27.37;15.53;;;;;;;-0.69;87.44;101650.81;5029386;28;20229;-64
2021/01/10 03:44:29;;;;;;;28.97;16.27;;;;;;;-0.67;87.45;101653.44;5021698;28;20225;-66
2021/01/10 03:46:55;;;;;;;23.60;14.03;;;;;;;-0.66;87.39;101653.44;5028121;28;20738;-64
2021/01/10 03:49:22;;;;;;;25.93;14.73;;;;;;;-0.64;87.20;101648.19;5026639;28;20594;-64
2021/01/10 03:51:48;;;;;;;26.73;15.53;;;;;;;-0.61;87.42;101649.06;5022962;28;20487;-64
2021/01/10 03:54:14;;;;;;;29.70;15.87;;;;;;;-0.59;87.78;101646.47;5012843;28;20231;-64
2021/01/10 03:56:40;;;;;;;29.77;16.03;;;;;;;-0.58;87.40;101638.59;5012857;28;20348;-65
2021/01/10 03:59:06;;;;;;;29.50;16.67;;;;;;;-0.55;87.52;101642.97;5011863;28;20214;-64
2021/01/10 04:01:32;;;;;;;30.13;14.57;;;;;;;-0.54;87.61;101644.72;5027549;28;20210;-64
2021/01/10 04:03:58;;;;;;;26.77;14.60;;;;;;;-0.53;87.72;101635.97;5019437;28;20730;-66
2021/01/10 04:06:25;;;;;;;29.57;13.67;;;;;;;-0.53;87.58;101638.56;5028750;28;20264;-63
2021/01/10 04:08:53;;;;;;;31.17;15.07;;;;;;;-0.51;87.62;101635.09;5031023;28;20222;-65
2021/01/10 04:11:20;;;;;;;26.80;15.40;;;;;;;-0.51;87.34;101635.09;5030788;28;20272;-65
2021/01/10 04:13:46;;;;;;;29.43;15.77;;;;;;;-0.50;87.38;101641.19;5023718;28;20277;-66
2021/01/10 04:16:13;;;;;;;24.53;14.10;;;;;;;-0.51;87.49;101635.09;5019485;28;20207;-65
2021/01/10 04:18:39;;;;;;;30.80;15.60;;;;;;;-0.51;87.24;101631.59;5024443;28;20203;-64
2021/01/10 04:21:05;;;;;;;27.27;14.60;;;;;;;-0.52;87.38;101632.47;5026210;28;20232;-65
2021/01/10 04:23:32;;;;;;;30.23;15.30;;;;;;;-0.51;87.31;101626.38;5013415;28;20765;-64
2021/01/10 04:25:58;;;;;;;28.33;15.77;;;;;;;-0.51;87.62;101624.63;5024495;28;20227;-64
2021/01/10 04:28:24;;;;;;;31.50;15.53;;;;;;;-0.51;87.56;101632.47;5019250;28;20226;-65
2021/01/10 04:30:50;;;;;;;30.17;15.37;;;;;;;-0.49;87.48;101629.84;5031317;28;20217;-64
2021/01/10 04:33:16;;;;;;;30.00;16.17;;;;;;;-0.49;87.18;101622.88;5022693;28;20641;-68
2021/01/10 04:35:42;;;;;;;29.70;15.10;;;;;;;-0.47;87.43;101622.88;5017643;28;20225;-65
2021/01/10 04:38:08;;;;;;;27.33;16.00;;;;;;;-0.47;87.64;101620.25;5031276;28;20959;-64
2021/01/10 04:40:35;;;;;;;25.40;14.67;;;;;;;-0.46;87.61;101611.53;5018088;28;20203;-65
2021/01/10 04:43:01;;;;;;;29.03;15.83;;;;;;;-0.43;87.48;101622.00;5021943;28;20213;-63
2021/01/10 04:45:28;;;;;;;31.87;16.40;;;;;;;-0.41;87.83;101615.00;5022803;28;20213;-63
2021/01/10 04:47:55;;;;;;;25.63;14.53;;;;;;;-0.39;87.68;101622.00;5023471;28;20229;-64
2021/01/10 04:50:22;;;;;;;28.20;14.90;;;;;;;-0.37;87.83;101625.47;5026274;28;20560;-64
2021/01/10 04:52:53;;;;;;;34.33;16.13;;;;;;;-0.35;87.73;101620.22;5010271;28;20214;-64
2021/01/10 04:55:20;;;;;;;36.00;18.30;;;;;;;-0.33;87.59;101621.06;5009577;28;20230;-66
2021/01/10 04:57:49;;;;;;;44.20;18.57;;;;;;;-0.31;87.68;101621.06;5019689;28;20199;-64
2021/01/10 05:00:17;;;;;;;40.13;19.50;;;;;;;-0.28;87.89;101621.06;5029620;28;20577;-65
2021/01/10 05:02:47;;;;;;;44.90;19.77;;;;;;;-0.25;87.44;101615.81;5023115;28;20354;-64
2021/01/10 05:05:13;;;;;;;47.87;19.40;;;;;;;-0.22;87.52;101618.44;5011416;28;20226;-64
2021/01/10 05:07:41;;;;;;;38.17;17.70;;;;;;;-0.21;87.84;101618.44;5016000;28;20703;-66
2021/01/10 05:10:08;;;;;;;38.57;17.40;;;;;;;-0.19;87.78;101626.28;5030202;28;20229;-64
2021/01/10 05:12:34;;;;;;;37.27;17.20;;;;;;;-0.18;87.88;101621.00;5011593;28;20280;-67
2021/01/10 05:15:00;;;;;;;40.47;18.07;;;;;;;-0.17;87.66;101619.28;5024244;28;20226;-64
2021/01/10 05:17:26;;;;;;;37.20;17.57;;;;;;;-0.17;87.68;101633.22;5010001;28;20207;-62
2021/01/10 05:19:54;;;;;;;33.10;16.43;;;;;;;-0.17;87.62;101630.63;5026730;28;20218;-64
2021/01/10 05:22:21;;;;;;;37.03;17.17;;;;;;;-0.15;87.95;101625.38;5025696;28;20202;-64
2021/01/10 05:24:47;;;;;;;35.00;16.47;;;;;;;-0.14;87.77;101632.34;5020181;28;20771;-65
2021/01/10 05:27:13;;;;;;;34.83;16.53;;;;;;;-0.14;87.83;101630.59;5026151;28;20594;-64
2021/01/10 05:29:42;;;;;;;34.60;16.63;;;;;;;-0.13;87.98;101627.13;5016737;28;20215;-67
2021/01/10 05:32:10;;;;;;;35.73;17.20;;;;;;;-0.13;87.74;101626.25;5013423;28;20275;-64
2021/01/10 05:34:36;;;;;;;35.33;17.20;;;;;;;-0.13;87.67;101624.50;5028531;28;20591;-63
2021/01/10 05:37:12;;;;;;;34.40;16.80;;;;;;;-0.12;87.68;101623.63;5023995;28;20659;-64
2021/01/10 05:39:43;;;;;;;38.07;17.00;;;;;;;-0.11;87.72;101634.97;5021726;28;20217;-65
2021/01/10 05:42:10;;;;;;;34.70;16.73;;;;;;;-0.12;87.82;101634.09;5019713;28;20207;-64
2021/01/10 05:44:48;;;;;;;32.53;16.63;;;;;;;-0.11;87.67;101645.44;5025823;28;20231;-65
2021/01/10 05:47:16;;;;;;;30.40;16.03;;;;;;;-0.12;87.82;101634.09;5017549;28;20219;-64
2021/01/10 05:49:44;;;;;;;38.57;18.00;;;;;;;-0.12;87.53;101634.09;5027996;28;20577;-65
2021/01/10 05:52:12;;;;;;;32.53;16.57;;;;;;;-0.12;87.70;101634.09;5024174;28;20264;-63
2021/01/10 05:54:39;;;;;;;38.13;16.63;;;;;;;-0.10;87.65;101637.59;5028571;28;20219;-64
2021/01/10 05:57:06;;;;;;;32.87;16.83;;;;;;;-0.10;87.77;101634.09;5028154;28;20209;-64
2021/01/10 05:59:34;;;;;;;34.73;15.80;;;;;;;-0.09;87.67;101648.94;5023719;28;20214;-65
2021/01/10 06:02:02;;;;;;;29.90;16.30;;;;;;;-0.08;87.55;101651.53;5023669;28;20202;-64
2021/01/10 06:04:30;;;;;;;33.50;17.37;;;;;;;-0.08;87.90;101641.06;5027935;28;20729;-64
2021/01/10 06:06:56;;;;;;;31.57;15.77;;;;;;;-0.06;87.71;101648.91;5026912;28;20229;-61
2021/01/10 06:09:23;;;;;;;34.07;17.17;;;;;;;-0.06;87.76;101648.91;5022072;28;20667;-65
2021/01/10 06:11:49;;;;;;;33.37;16.53;;;;;;;-0.07;87.67;101642.81;5027832;28;20264;-64
2021/01/10 06:14:20;;;;;;;36.00;17.27;;;;;;;-0.06;87.66;101652.41;5026403;28;20234;-64
2021/01/10 06:16:55;;;;;;;34.57;18.33;;;;;;;-0.05;87.61;101646.28;5023075;28;20203;-64
2021/01/10 06:19:27;;;;;;;32.63;16.50;;;;;;;-0.03;87.58;101651.53;5027230;28;20241;-64
2021/01/10 06:21:56;;;;;;;34.50;17.30;;;;;;;-0.02;87.71;101646.28;5017152;28;20236;-64
2021/01/10 06:24:24;;;;;;;34.10;17.50;;;;;;;0.02;87.55;101654.97;5025555;28;20229;-64
2021/01/10 06:27:01;;;;;;;34.10;16.37;;;;;;;0.00;87.65;101652.38;5016492;28;20198;-66
2021/01/10 06:29:30;;;;;;;36.63;17.40;;;;;;;0.03;87.61;101650.63;5019849;28;20698;-64
2021/01/10 06:31:57;;;;;;;38.83;16.43;;;;;;;0.03;87.71;101658.47;5022644;28;20629;-64
2021/01/10 06:34:29;;;;;;;34.87;18.63;;;;;;;0.03;87.64;101651.47;5010357;28;20230;-64
2021/01/10 06:36:59;;;;;;;33.60;17.13;;;;;;;0.03;87.75;101643.63;5012091;28;20203;-64
2021/01/10 06:39:32;;;;;;;34.47;17.93;;;;;;;0.04;87.79;101650.59;5021348;28;20207;-64
2021/01/10 06:42:14;;;;;;;36.93;16.53;;;;;;;0.05;87.34;101648.88;5010150;28;20294;-64
2021/01/10 06:44:42;;;;;;;34.90;17.13;;;;;;;0.06;87.64;101650.59;5021702;28;20232;-64
2021/01/10 06:47:19;;;;;;;36.00;17.17;;;;;;;0.06;87.64;101650.59;5023925;28;20237;-63
2021/01/10 06:49:45;;;;;;;37.63;17.63;;;;;;;0.06;87.57;101646.25;5021838;28;20210;-64
2021/01/10 06:52:13;;;;;;;39.17;18.50;;;;;;;0.08;87.74;101646.25;5029106;28;20207;-63
2021/01/10 06:54:44;;;;;;;32.73;16.73;;;;;;;0.08;87.62;101641.88;5029766;28;20230;-64
2021/01/10 06:57:11;;;;;;;34.40;17.13;;;;;;;0.10;87.64;101649.72;5027393;28;20202;-63
2021/01/10 07:00:00;;;;;;;37.37;17.87;;;;;;;0.10;87.64;101641.88;5011378;28;20203;-64
2021/01/10 07:02:27;;;;;;;37.70;17.03;;;;;;;0.12;87.66;101648.84;5024836;28;20210;-65
2021/01/10 07:04:57;;;;;;;36.00;17.57;;;;;;;0.12;87.53;101650.59;5019798;28;20715;-63
2021/01/10 07:07:45;;;;;;;34.70;16.50;;;;;;;0.13;87.59;101658.44;5012011;28;20732;-65
2021/01/10 07:10:23;;;;;;;33.67;17.20;;;;;;;0.12;87.47;101653.22;5022958;28;20213;-64
2021/01/10 07:12:49;;;;;;;35.07;16.83;;;;;;;0.12;87.67;101656.69;5018044;28;20209;-64
2021/01/10 07:15:26;;;;;;;35.80;16.60;;;;;;;0.11;87.83;101654.97;5033131;28;20234;-64
2021/01/10 07:18:07;;;;;;;37.90;17.73;;;;;;;0.13;87.60;101654.94;5019451;28;20202;-64
2021/01/10 07:20:50;;;;;;;37.23;18.00;;;;;;;0.12;87.46;101653.22;5032683;28;20662;-66
2021/01/10 07:23:28;;;;;;;39.50;17.27;;;;;;;0.12;87.50;101653.22;5016565;28;20234;-63
2021/01/10 07:25:55;;;;;;;36.37;16.87;;;;;;;0.12;87.49;101653.22;5016104;28;20218;-64
2021/01/10 07:28:36;;;;;;;37.70;18.00;;;;;;;0.10;87.48;101654.97;5021232;28;20234;-64
2021/01/10 07:31:09;;;;;;;36.87;17.57;;;;;;;0.09;87.50;101654.09;5022312;28;20217;-65
2021/01/10 07:33:36;;;;;;;38.03;18.97;;;;;;;0.10;87.74;101661.06;5024569;28;20313;-65
2021/01/10 07:36:02;;;;;;;41.67;20.23;;;;;;;0.10;87.48;101657.59;5018604;28;20226;-64
2021/01/10 07:38:31;;;;;;;46.90;21.00;;;;;;;0.10;87.84;101658.44;5018026;28;20199;-64
2021/01/10 07:41:21;;;;;;;44.80;19.00;;;;;;;0.14;87.67;101656.69;5026121;28;20617;-64
2021/01/10 07:43:52;;;;;;;46.90;19.93;;;;;;;0.16;87.54;101661.06;5026048;28;20264;-64
2021/01/10 07:47:00;;;;;;;43.43;17.40;;;;;;;0.18;87.65;101651.41;5022486;28;20663;-65
2021/01/10 07:49:28;;;;;;;37.77;17.30;;;;;;;0.22;87.37;101657.50;5013640;28;20725;-65
2021/01/10 07:51:55;;;;;;;33.53;15.77;;;;;;;0.24;87.66;101668.84;5027728;28;20229;-65
2021/01/10 07:54:53;;;;;;;39.87;16.60;;;;;;;0.27;87.55;101661.88;5027608;28;20229;-64
2021/01/10 07:57:32;;;;;;;33.57;16.50;;;;;;;0.30;87.61;101671.47;5027216;28;20209;-64
2021/01/10 08:00:11;;;;;;;42.60;18.93;;;;;;;0.31;87.37;101652.25;5021861;28;20207;-63
2021/01/10 08:02:45;;;;;;;41.63;18.77;;;;;;;0.34;87.33;101665.34;5022699;28;20282;-63
2021/01/10 08:05:14;;;;;;;42.63;18.77;;;;;;;0.35;87.55;101659.22;5022595;28;20225;-65
2021/01/10 08:07:46;;;;;;;39.83;18.67;;;;;;;0.36;87.29;101660.94;5021597;28;20222;-65
2021/01/10 08:10:14;;;;;;;41.33;19.33;;;;;;;0.38;87.43;101661.78;5027492;28;20214;-65
2021/01/10 08:12:40;;;;;;;37.03;17.87;;;;;;;0.41;87.57;101653.91;5027425;28;20206;-66
2021/01/10 08:15:07;;;;;;;42.10;18.60;;;;;;;0.43;87.70;101660.03;5024167;28;20225;-64
2021/01/10 08:17:36;;;;;;;38.53;17.77;;;;;;;0.45;87.29;101665.25;5020088;28;20214;-63
2021/01/10 08:20:04;;;;;;;40.40;18.00;;;;;;;0.46;87.40;101673.13;5025146;28;20206;-65
2021/01/10 08:22:30;;;;;;;43.30;19.60;;;;;;;0.48;87.19;101666.13;5026948;28;20697;-64
2021/01/10 08:24:56;;;;;;;39.53;19.83;;;;;;;0.50;87.26;101674.84;5023805;28;20231;-66
2021/01/10 08:27:24;;;;;;;44.50;19.33;;;;;;;0.51;87.21;101676.59;5028025;28;20695;-65
2021/01/10 08:29:51;;;;;;;45.93;19.67;;;;;;;0.54;87.23;101678.28;5031058;28;20206;-65
2021/01/10 08:32:17;;;;;;;41.33;18.87;;;;;;;0.54;87.18;101681.78;5019736;28;20690;-66
2021/01/10 08:34:46;;;;;;;43.30;19.30;;;;;;;0.55;87.05;101680.91;5029443;28;20825;-64
2021/01/10 08:37:14;;;;;;;44.17;19.17;;;;;;;0.57;86.97;101686.16;5017456;28;20211;-65
2021/01/10 08:39:40;;;;;;;43.17;21.30;;;;;;;0.58;87.24;101680.91;5021352;28;20229;-65
2021/01/10 08:42:06;;;;;;;42.87;21.40;;;;;;;0.60;87.05;101687.00;5023749;28;20214;-64
2021/01/10 08:44:33;;;;;;;41.53;20.13;;;;;;;0.61;87.13;101686.13;5042785;22;20233;-65
2021/01/10 08:46:59;;;;;;;44.67;23.07;;;;;;;0.64;86.81;101688.75;5044006;28;20202;-65
2021/01/10 08:49:26;;;;;;;48.27;25.67;;;;;;;0.66;87.09;101688.72;5046438;28;20210;-66
2021/01/10 08:51:52;;;;;;;48.90;23.67;;;;;;;0.68;86.74;101690.47;5038987;28;20217;-65
2021/01/10 08:54:20;;;;;;;55.03;25.87;;;;;;;0.69;86.75;101693.97;5045643;28;20214;-66
2021/01/10 08:56:50;;;;;;;50.67;24.73;;;;;;;0.71;86.78;101680.84;5034023;28;20693;-65
2021/01/10 08:59:18;;;;;;;47.97;22.80;;;;;;;0.74;86.98;101696.53;5043439;28;20679;-65
2021/01/10 09:01:45;;;;;;;46.37;24.13;;;;;;;0.75;87.07;101693.91;5035332;28;20222;-65
2021/01/10 09:04:12;;;;;;;49.50;23.10;;;;;;;0.77;86.67;101691.28;5038575;28;20681;-66
2021/01/10 09:06:47;;;;;;;46.17;22.63;;;;;;;0.79;86.92;101694.75;5038617;28;20210;-65
2021/01/10 09:09:22;;;;;;;48.70;23.50;;;;;;;0.81;86.57;101696.50;5042781;28;20874;-65
2021/01/10 09:11:56;;;;;;;47.30;21.90;;;;;;;0.83;86.65;101702.59;5029751;28;20252;-65
2021/01/10 09:14:25;;;;;;;42.27;20.10;;;;;;;0.84;86.87;101699.09;5028165;28;20222;-66
2021/01/10 09:16:53;;;;;;;45.97;19.63;;;;;;;0.86;86.81;101692.09;5031722;28;20701;-66
2021/01/10 09:19:21;;;;;;;40.80;19.27;;;;;;;0.88;86.68;101692.09;5038828;28;20217;-65
2021/01/10 09:21:48;;;;;;;45.20;20.87;;;;;;;0.90;86.74;101692.91;5037513;28;20218;-65
2021/01/10 09:24:15;;;;;;;52.40;22.70;;;;;;;0.93;86.77;101703.41;5041317;28;20226;-66
2021/01/10 09:26:41;;;;;;;51.53;23.27;;;;;;;0.96;86.53;101692.88;5033889;28;20577;-66
2021/01/10 09:29:17;;;;;;;45.47;20.87;;;;;;;1.00;86.81;101694.63;5035663;28;20241;-66
2021/01/10 09:31:46;;;;;;;38.20;19.60;;;;;;;1.02;86.64;101692.84;5033412;28;20208;-66
2021/01/10 09:34:13;;;;;;;46.57;20.83;;;;;;;1.04;86.39;101691.97;5036797;28;20259;-65
2021/01/10 09:36:40;;;;;;;41.03;19.90;;;;;;;1.08;86.41;101695.41;5034875;28;20228;-66
2021/01/10 09:39:07;;;;;;;40.03;19.97;;;;;;;1.11;86.35;101705.00;5037538;28;20221;-66
2021/01/10 09:41:50;;;;;;;41.03;20.57;;;;;;;1.14;86.45;101697.13;5033006;28;20264;-66
2021/01/10 09:44:18;;;;;;;40.20;21.70;;;;;;;1.16;86.76;101693.59;5033929;28;20295;-65
2021/01/10 09:46:51;;;;;;;43.00;20.00;;;;;;;1.19;86.19;101692.72;5038119;28;20209;-66
2021/01/10 09:49:21;;;;;;;40.97;20.43;;;;;;;1.22;86.50;101692.69;5036296;28;20626;-66
2021/01/10 09:51:52;;;;;;;42.77;21.50;;;;;;;1.26;86.56;101697.88;5037780;28;20667;-66
2021/01/10 09:54:19;;;;;;;43.33;20.00;;;;;;;1.29;86.60;101692.63;5033333;28;20308;-66
2021/01/10 09:56:50;;;;;;;34.20;18.13;;;;;;;1.29;86.27;101690.00;5037160;28;20668;-64
2021/01/10 09:59:40;;;;;;;41.13;18.97;;;;;;;1.29;86.50;101689.13;5032291;28;20231;-63
2021/01/10 10:02:11;;;;;;;40.27;19.33;;;;;;;1.27;86.10;101691.75;5030406;28;20693;-66
2021/01/10 10:04:38;;;;;;;38.40;18.93;;;;;;;1.27;85.79;101688.25;5038387;28;20218;-66
2021/01/10 10:07:05;;;;;;;32.73;16.73;;;;;;;1.26;85.71;101690.00;5038689;28;20209;-65
2021/01/10 10:09:58;;;;;;;34.50;17.90;;;;;;;1.29;85.31;101691.75;5044083;28;20198;-65
2021/01/10 10:12:25;;;;;;;38.63;18.23;;;;;;;1.30;85.75;101689.09;5010023;28;20224;-65
2021/01/10 10:14:59;;;;;;;33.33;16.83;;;;;;;1.34;85.52;101689.97;5030518;28;20599;-65
2021/01/10 10:17:31;;;;;;;28.93;16.50;;;;;;;1.37;85.76;101688.19;5033357;28;20576;-65
2021/01/10 10:19:58;;;;;;;29.73;17.13;;;;;;;1.42;85.48;101684.66;5056300;28;20209;-64
2021/01/10 10:22:29;;;;;;;36.60;18.50;;;;;;;1.46;85.22;101678.47;5039397;28;20221;-65
2021/01/10 10:24:56;;;;;;;36.87;17.23;;;;;;;1.49;84.83;101683.69;5040359;28;20286;-64
2021/01/10 10:27:24;;;;;;;29.27;16.23;;;;;;;1.51;84.93;101677.53;5043122;28;20767;-64
2021/01/10 10:29:51;;;;;;;30.90;15.47;;;;;;;1.55;85.09;101674.00;5038680;28;20205;-64
2021/01/10 10:32:17;;;;;;;26.57;13.33;;;;;;;1.60;85.27;101673.97;5044042;28;20221;-64
2021/01/10 10:34:43;;;;;;;31.07;15.40;;;;;;;1.61;84.35;101668.69;5030710;28;20226;-65
2021/01/10 10:37:09;;;;;;;25.47;14.80;;;;;;;1.63;84.88;101663.41;5043601;28;20214;-65
2021/01/10 10:39:36;;;;;;;28.90;15.43;;;;;;;1.65;84.23;101664.28;5038510;28;20206;-65
2021/01/10 10:42:03;;;;;;;27.43;14.67;;;;;;;1.65;84.57;101664.28;5040999;28;20263;-64
2021/01/10 10:44:29;;;;;;;24.73;14.70;;;;;;;1.67;84.33;101659.88;5041734;28;20871;-64
2021/01/10 10:46:55;;;;;;;26.60;15.03;;;;;;;1.69;84.24;101653.72;5039667;28;20206;-64
2021/01/10 10:49:21;;;;;;;26.67;13.33;;;;;;;1.70;83.63;101647.59;5041063;28;20364;-64
2021/01/10 10:51:47;;;;;;;27.50;15.23;;;;;;;1.72;83.96;101652.81;5047549;28;20704;-64
2021/01/10 10:54:14;;;;;;;26.70;14.00;;;;;;;1.73;83.48;101642.31;5047750;28;20230;-65
2021/01/10 10:56:41;;;;;;;27.57;15.50;;;;;;;1.76;83.62;101645.78;5047043;28;20207;-63
2021/01/10 10:59:07;;;;;;;25.83;13.73;;;;;;;1.78;83.16;101638.75;5033336;28;20228;-63
2021/01/10 11:01:38;;;;;;;24.80;13.67;;;;;;;1.80;83.06;101637.84;5033153;28;20214;-62
2021/01/10 11:04:04;;;;;;;28.07;14.70;;;;;;;1.83;83.31;101636.94;5034268;28;20250;-61
2021/01/10 11:06:30;;;;;;;24.33;13.23;;;;;;;1.86;82.45;101637.78;5039706;28;20210;-65
2021/01/10 11:08:56;;;;;;;23.07;13.60;;;;;;;1.88;83.04;101637.75;5047443;28;20229;-64
2021/01/10 11:11:32;;;;;;;25.27;13.23;;;;;;;1.90;82.39;101635.97;5048255;28;20263;-65
2021/01/10 11:13:58;;;;;;;25.93;13.47;;;;;;;1.91;82.33;101630.72;5034714;28;20233;-65
2021/01/10 11:16:29;;;;;;;19.70;12.40;;;;;;;1.93;82.66;101628.06;5039231;28;20305;-64
2021/01/10 11:18:55;;;;;;;20.87;12.23;;;;;;;1.93;81.84;101628.94;5034172;28;20565;-64